Time;durP1;ratioP1;P1;durP2;ratioP2;P2;SDS_P1;SDS_P2;PMS_P1;PMS_P2;Temp;Humidity;BMP_temperature;BMP_pressure;BME280_temperature;BME280_humidity;BME280_pressure;Samples;Min_cycle;Max_cycle;Signal;HPM_P1;HPM_P2
2021/03/13 00:01:03;;;;;;;7.70;2.95;;;;;;;6.08;100.00;99238.56;4973471;28;20061;-74
2021/03/13 00:03:29;;;;;;;9.05;3.10;;;;;;;6.18;100.00;99225.38;4974939;28;20114;-74
2021/03/13 00:05:55;;;;;;;4.70;2.92;;;;;;;6.25;100.00;99219.34;4971870;28;20118;-74
2021/03/13 00:08:21;;;;;;;7.40;2.55;;;;;;;6.21;100.00;99224.63;4971727;28;20097;-75
2021/03/13 00:10:47;;;;;;;3.65;2.50;;;;;;;6.20;100.00;99231.13;4970974;28;20483;-74
2021/03/13 00:13:13;;;;;;;4.93;2.85;;;;;;;6.21;100.00;99229.97;4973972;28;20035;-74
2021/03/13 00:15:40;;;;;;;5.43;2.15;;;;;;;6.17;100.00;99241.75;4972919;28;20049;-74
2021/03/13 00:18:07;;;;;;;6.40;2.60;;;;;;;6.19;100.00;99247.53;4970974;28;20194;-74
2021/03/13 00:20:35;;;;;;;5.07;2.88;;;;;;;6.26;100.00;99231.56;4968302;28;20031;-74
2021/03/13 00:23:01;;;;;;;7.32;2.83;;;;;;;6.17;100.00;99220.38;4966101;28;20065;-74
2021/03/13 00:25:29;;;;;;;4.72;2.70;;;;;;;6.05;100.00;99225.94;4970172;28;20031;-74
2021/03/13 00:27:56;;;;;;;6.10;3.03;;;;;;;6.06;100.00;99217.56;4971752;28;20098;-74
2021/03/13 00:30:26;;;;;;;5.95;2.85;;;;;;;6.00;100.00;99210.22;4972071;28;20058;-74
2021/03/13 00:32:58;;;;;;;5.57;3.55;;;;;;;5.96;100.00;99206.72;4972920;28;20073;-74
2021/03/13 00:35:26;;;;;;;5.00;3.45;;;;;;;6.14;100.00;99210.41;4970574;28;20030;-76
2021/03/13 00:37:51;;;;;;;4.93;3.13;;;;;;;6.13;100.00;99203.53;4974195;28;20577;-74
2021/03/13 00:40:19;;;;;;;4.68;3.08;;;;;;;6.11;100.00;99193.22;4972829;28;20030;-73
2021/03/13 00:42:45;;;;;;;8.48;3.10;;;;;;;6.06;100.00;99198.84;4972455;28;20514;-74
2021/03/13 00:45:15;;;;;;;7.20;3.42;;;;;;;5.98;100.00;99207.13;4970343;28;20027;-74
2021/03/13 00:47:41;;;;;;;5.53;3.15;;;;;;;5.99;100.00;99204.09;4972369;28;20190;-74
2021/03/13 00:50:08;;;;;;;5.13;3.20;;;;;;;6.10;100.00;99204.22;4973060;28;20110;-75
2021/03/13 00:52:34;;;;;;;7.18;3.42;;;;;;;5.96;100.00;99223.50;4973208;28;20055;-74
2021/03/13 00:55:00;;;;;;;5.07;3.35;;;;;;;5.98;100.00;99223.16;4965663;28;20063;-74
2021/03/13 00:57:26;;;;;;;5.32;3.28;;;;;;;5.95;100.00;99203.28;4969065;28;20043;-74
2021/03/13 00:59:51;;;;;;;4.78;3.00;;;;;;;5.95;100.00;99216.63;4972578;28;20129;-74
2021/03/13 01:02:17;;;;;;;6.82;3.22;;;;;;;5.95;100.00;99216.63;4972665;28;20047;-75
2021/03/13 01:04:42;;;;;;;5.07;2.92;;;;;;;5.98;100.00;99207.13;4968599;28;20023;-74
2021/03/13 01:07:08;;;;;;;9.43;3.25;;;;;;;5.81;100.00;99210.25;4964815;28;20061;-73
2021/03/13 01:09:35;;;;;;;5.47;2.90;;;;;;;5.76;100.00;99216.69;4985307;28;20034;-74
2021/03/13 01:12:01;;;;;;;5.07;2.97;;;;;;;5.79;100.00;99209.88;4979657;28;20038;-74
2021/03/13 01:14:27;;;;;;;6.43;2.97;;;;;;;5.76;100.00;99200.66;4969472;28;20558;-74
2021/03/13 01:16:52;;;;;;;5.10;3.10;;;;;;;5.80;100.00;99208.72;4974372;28;20034;-74
2021/03/13 01:19:18;;;;;;;5.40;2.85;;;;;;;5.77;100.00;99204.88;4972682;28;20035;-74
2021/03/13 01:21:46;;;;;;;4.28;2.58;;;;;;;5.56;100.00;99201.09;4971643;28;20019;-74
2021/03/13 01:24:13;;;;;;;4.72;2.45;;;;;;;5.61;100.00;99214.16;4980482;28;20097;-74
2021/03/13 01:26:41;;;;;;;6.72;2.60;;;;;;;5.58;100.00;99214.84;4987383;28;20031;-73
2021/03/13 01:29:09;;;;;;;5.35;2.75;;;;;;;5.75;100.00;99209.03;4969419;28;20085;-74
2021/03/13 01:31:43;;;;;;;4.68;2.38;;;;;;;5.81;100.00;99205.69;4971371;28;20109;-74
2021/03/13 01:34:09;;;;;;;5.13;2.70;;;;;;;5.75;100.00;99196.44;4971922;28;20033;-74
2021/03/13 01:36:40;;;;;;;6.22;2.45;;;;;;;5.84;100.00;99207.69;4963437;28;20502;-74
2021/03/13 01:39:06;;;;;;;4.72;2.15;;;;;;;5.67;100.00;99202.03;4965481;28;20704;-75
2021/03/13 01:41:32;;;;;;;3.25;2.20;;;;;;;5.52;100.00;99197.59;4982099;28;20030;-74
2021/03/13 01:43:58;;;;;;;2.88;2.40;;;;;;;5.70;100.00;99190.63;4971765;28;20138;-74
2021/03/13 01:46:26;;;;;;;8.40;2.50;;;;;;;5.75;100.00;99191.09;4970894;28;20554;-74
2021/03/13 01:48:53;;;;;;;3.90;2.17;;;;;;;5.69;100.00;99178.44;4974258;28;20519;-74
2021/03/13 01:51:22;;;;;;;3.08;2.15;;;;;;;5.67;100.00;99191.38;4974012;28;20034;-74
2021/03/13 01:53:49;;;;;;;2.65;1.92;;;;;;;5.66;100.00;99195.16;4973291;28;20050;-75
2021/03/13 01:56:17;;;;;;;4.50;2.15;;;;;;;5.55;100.00;99204.91;4972860;28;20125;-74
2021/03/13 01:58:45;;;;;;;3.20;1.83;;;;;;;5.59;100.00;99195.03;4988182;28;20122;-74
2021/03/13 02:01:14;;;;;;;4.18;2.13;;;;;;;5.51;100.00;99186.16;4984723;28;20038;-74
2021/03/13 02:03:41;;;;;;;5.65;1.88;;;;;;;5.53;100.00;99183.91;4997531;28;20154;-74
2021/03/13 02:06:08;;;;;;;4.35;1.52;;;;;;;5.52;100.00;99187.69;4973358;28;20019;-74
2021/03/13 02:09:07;;;;;;;3.50;1.75;;;;;;;5.44;100.00;99178.78;4973333;28;20562;-75
2021/03/13 02:11:54;;;;;;;5.80;1.70;;;;;;;5.59;100.00;99177.13;4970897;28;20030;-75
2021/03/13 02:14:43;;;;;;;5.95;1.77;;;;;;;5.62;100.00;99173.75;4972203;28;20038;-74
2021/03/13 02:17:18;;;;;;;1.85;1.60;;;;;;;5.47;100.00;99171.97;4973927;28;20122;-74
2021/03/13 02:20:18;;;;;;;4.00;1.52;;;;;;;5.47;100.00;99177.31;4967485;28;20035;-74
2021/03/13 02:22:51;;;;;;;2.80;1.80;;;;;;;5.44;100.00;99176.13;4987319;28;20035;-74
2021/03/13 02:25:57;;;;;;;3.40;1.77;;;;;;;5.40;100.00;99166.53;4968533;28;20114;-74
2021/03/13 02:28:41;;;;;;;3.40;1.52;;;;;;;5.43;100.00;99163.91;4972619;28;20034;-75
2021/03/13 02:31:10;;;;;;;3.17;1.60;;;;;;;5.44;100.00;99162.78;4986379;28;20030;-74
2021/03/13 02:33:40;;;;;;;4.38;1.67;;;;;;;5.50;100.00;99150.66;4968094;28;20051;-74
2021/03/13 02:36:27;;;;;;;4.80;1.90;;;;;;;5.49;100.00;99159.81;4970181;28;20039;-75
2021/03/13 02:39:03;;;;;;;6.70;2.17;;;;;;;5.41;100.00;99157.38;4988051;28;20487;-74
2021/03/13 02:41:42;;;;;;;4.97;2.17;;;;;;;5.44;100.00;99146.75;4987570;28;20534;-74
2021/03/13 02:44:12;;;;;;;7.07;2.40;;;;;;;5.42;100.00;99154.34;4988223;28;20027;-74
2021/03/13 02:46:50;;;;;;;5.50;2.63;;;;;;;5.54;100.00;99142.72;4980962;28;20384;-74
2021/03/13 02:49:23;;;;;;;5.22;2.97;;;;;;;5.47;100.00;99150.63;4970993;28;20038;-74
2021/03/13 02:51:57;;;;;;;6.97;2.80;;;;;;;5.25;100.00;99157.50;4972256;28;20034;-74
2021/03/13 02:54:24;;;;;;;6.15;3.28;;;;;;;5.16;100.00;99145.53;4970798;28;20065;-74
2021/03/13 02:56:53;;;;;;;7.60;3.00;;;;;;;5.19;100.00;99140.25;4970748;28;20050;-74
2021/03/13 02:59:18;;;;;;;6.03;3.08;;;;;;;5.29;100.00;99128.22;4982639;28;20373;-74
2021/03/13 03:01:48;;;;;;;6.82;2.78;;;;;;;5.25;100.00;99132.72;4968718;28;20388;-74
2021/03/13 03:04:16;;;;;;;8.30;3.50;;;;;;;5.27;100.00;99127.78;5000308;28;20035;-74
2021/03/13 03:06:47;;;;;;;7.72;3.28;;;;;;;5.25;100.00;99133.50;4982237;28;20034;-74
2021/03/13 03:09:14;;;;;;;11.50;3.25;;;;;;;5.15;100.00;99136.75;4999342;23;20039;-78
2021/03/13 03:11:46;;;;;;;7.45;3.53;;;;;;;5.29;100.00;99123.66;4987044;28;20471;-79
2021/03/13 03:14:16;;;;;;;7.47;3.70;;;;;;;5.15;100.00;99114.66;4970765;28;20038;-79
2021/03/13 03:16:46;;;;;;;9.10;4.10;;;;;;;5.11;100.00;99113.81;4958882;28;20034;-76
2021/03/13 03:19:16;;;;;;;11.40;3.70;;;;;;;5.32;100.00;99106.91;4975574;28;20563;-79
2021/03/13 03:21:47;;;;;;;10.32;3.70;;;;;;;5.10;100.00;99102.38;4971936;28;20126;-79
2021/03/13 03:24:13;;;;;;;9.77;3.97;;;;;;;5.22;100.00;99096.88;4972954;28;20035;-79
2021/03/13 03:26:40;;;;;;;9.25;4.57;;;;;;;5.13;100.00;99096.31;4970928;28;20023;-79
2021/03/13 03:29:08;;;;;;;10.48;3.90;;;;;;;5.12;100.00;99099.34;4974031;28;20030;-79
2021/03/13 03:31:34;;;;;;;6.88;3.85;;;;;;;5.05;100.00;99096.56;4963214;28;20558;-76
2021/03/13 03:34:01;;;;;;;12.68;4.10;;;;;;;4.88;100.00;99092.47;4964185;28;20376;-79
2021/03/13 03:36:26;;;;;;;13.40;4.28;;;;;;;4.62;100.00;99087.06;4993173;28;20039;-78
2021/03/13 03:38:55;;;;;;;8.63;4.30;;;;;;;4.86;100.00;99089.38;4966983;28;20063;-77
2021/03/13 03:41:32;;;;;;;7.30;4.10;;;;;;;4.89;100.00;99079.91;4990540;28;20495;-79
2021/03/13 03:44:10;;;;;;;11.98;4.57;;;;;;;5.03;100.00;99082.81;4993039;28;20053;-79
2021/03/13 03:46:40;;;;;;;8.18;3.90;;;;;;;5.11;100.00;99079.91;4966101;28;20486;-78
2021/03/13 03:49:09;;;;;;;12.48;4.38;;;;;;;5.06;100.00;99074.88;4972180;28;20031;-79
2021/03/13 03:51:43;;;;;;;8.30;4.53;;;;;;;4.81;100.00;99060.38;4971986;28;20031;-79
2021/03/13 03:54:14;;;;;;;8.43;4.28;;;;;;;4.78;100.00;99070.97;4968241;28;20030;-77
2021/03/13 03:56:41;;;;;;;7.88;4.20;;;;;;;4.82;100.00;99063.81;4972097;28;20031;-76
2021/03/13 03:59:18;;;;;;;10.00;4.65;;;;;;;4.89;100.00;99067.34;4986197;28;20046;-77
2021/03/13 04:01:49;;;;;;;11.15;5.20;;;;;;;4.95;100.00;99063.28;4978549;28;20407;-79
2021/03/13 04:04:18;;;;;;;15.00;5.17;;;;;;;4.99;100.00;99056.09;4977502;28;20045;-79
2021/03/13 04:06:46;;;;;;;15.82;5.70;;;;;;;4.98;100.00;99051.09;4974663;28;20654;-77
2021/03/13 04:09:12;;;;;;;10.77;4.78;;;;;;;4.91;100.00;99049.09;4974296;28;20038;-77
2021/03/13 04:11:40;;;;;;;11.15;5.18;;;;;;;4.89;100.00;99046.03;4975155;28;21824;-76
2021/03/13 04:14:06;;;;;;;13.57;5.45;;;;;;;4.93;100.00;99038.84;4968687;28;20082;-77
2021/03/13 04:16:31;;;;;;;11.82;5.35;;;;;;;5.07;100.00;99036.38;4970224;28;20447;-77
2021/03/13 04:18:58;;;;;;;11.75;5.28;;;;;;;4.93;100.00;99036.19;4972844;28;20659;-77
2021/03/13 04:21:25;;;;;;;14.43;6.30;;;;;;;4.92;100.00;99026.63;4950780;28;20039;-77
2021/03/13 04:23:50;;;;;;;15.60;6.10;;;;;;;4.98;100.00;99033.22;4966816;28;20023;-77
2021/03/13 04:26:17;;;;;;;11.23;5.80;;;;;;;5.09;100.00;99025.38;4975118;28;20399;-76
2021/03/13 04:28:47;;;;;;;16.77;6.78;;;;;;;5.22;100.00;99021.38;4971580;28;20073;-77
2021/03/13 04:31:13;;;;;;;16.80;7.05;;;;;;;5.02;100.00;99017.25;4960628;28;20106;-77
2021/03/13 04:33:41;;;;;;;15.60;7.00;;;;;;;4.83;100.00;99015.44;4978852;28;20026;-77
2021/03/13 04:36:07;;;;;;;14.93;7.03;;;;;;;4.71;100.00;99022.84;4976653;28;20035;-77
2021/03/13 04:38:34;;;;;;;17.45;8.10;;;;;;;4.70;100.00;99019.44;4977375;28;20023;-77
2021/03/13 04:41:00;;;;;;;22.00;8.05;;;;;;;4.84;100.00;99008.97;4976543;28;20497;-77
2021/03/13 04:43:26;;;;;;;23.38;9.32;;;;;;;4.97;100.00;98996.25;4971668;28;20039;-76
2021/03/13 04:46:00;;;;;;;22.40;8.55;;;;;;;4.75;100.00;98992.47;4973760;28;20102;-77
2021/03/13 04:48:31;;;;;;;20.63;9.75;;;;;;;4.88;100.00;98996.47;4972526;28;20510;-76
2021/03/13 04:50:58;;;;;;;19.63;9.20;;;;;;;4.87;100.00;98980.84;4972160;28;20049;-77
2021/03/13 04:53:24;;;;;;;23.35;10.00;;;;;;;5.16;100.00;98990.81;4966407;28;20058;-75
2021/03/13 04:55:49;;;;;;;21.35;9.82;;;;;;;5.11;100.00;98980.44;4975530;28;20436;-77
2021/03/13 04:58:15;;;;;;;21.45;9.85;;;;;;;4.94;100.00;98983.59;4971337;28;20121;-77
2021/03/13 05:00:40;;;;;;;20.10;10.23;;;;;;;4.78;100.00;98977.66;4971102;28;20660;-77
2021/03/13 05:03:06;;;;;;;25.80;10.27;;;;;;;4.89;100.00;98959.91;4973392;28;20077;-76
2021/03/13 05:05:33;;;;;;;21.80;10.27;;;;;;;5.10;100.00;98957.56;4995542;28;20030;-77
2021/03/13 05:08:01;;;;;;;23.85;10.48;;;;;;;4.92;100.00;98961.84;4970575;28;20038;-77
2021/03/13 05:10:28;;;;;;;22.73;10.93;;;;;;;5.13;100.00;98957.59;4974182;28;20035;-77
2021/03/13 05:12:54;;;;;;;27.83;12.57;;;;;;;5.24;100.00;98952.44;4977313;28;20110;-76
2021/03/13 05:15:20;;;;;;;25.55;11.40;;;;;;;5.31;100.00;98947.19;4971832;28;20074;-77
2021/03/13 05:17:45;;;;;;;22.15;10.82;;;;;;;5.33;100.00;98943.03;4968674;28;20038;-77
2021/03/13 05:20:12;;;;;;;21.10;10.55;;;;;;;4.98;100.00;98941.75;4970609;28;20113;-76
2021/03/13 05:22:38;;;;;;;26.65;11.45;;;;;;;5.18;100.00;98940.53;4978074;28;20047;-77
2021/03/13 05:25:05;;;;;;;21.80;10.85;;;;;;;5.19;100.00;98934.03;4962900;28;20548;-74
2021/03/13 05:27:30;;;;;;;24.77;11.45;;;;;;;5.20;100.00;98925.72;4970008;28;20054;-76
2021/03/13 05:29:57;;;;;;;25.08;10.60;;;;;;;5.23;100.00;98916.97;4971635;28;20081;-76
2021/03/13 05:32:23;;;;;;;27.55;11.90;;;;;;;5.47;100.00;98913.84;4957016;28;20035;-77
2021/03/13 05:34:49;;;;;;;26.33;11.30;;;;;;;5.60;100.00;98902.91;4966527;28;20031;-76
2021/03/13 05:37:15;;;;;;;25.05;10.57;;;;;;;5.60;100.00;98894.91;4967733;28;20041;-77
2021/03/13 05:39:42;;;;;;;23.52;10.65;;;;;;;5.58;100.00;98889.16;4963267;28;20114;-79
2021/03/13 05:42:09;;;;;;;20.40;10.52;;;;;;;5.58;100.00;98883.81;4990856;28;20045;-77
2021/03/13 05:44:37;;;;;;;23.58;10.73;;;;;;;5.44;100.00;98879.88;4968330;28;20026;-76
2021/03/13 05:47:03;;;;;;;23.98;10.32;;;;;;;5.55;100.00;98868.53;4969663;28;20039;-76
2021/03/13 05:49:31;;;;;;;25.15;11.32;;;;;;;5.52;100.00;98858.59;4968713;28;20042;-76
2021/03/13 05:51:58;;;;;;;27.88;10.35;;;;;;;5.53;100.00;98867.00;4971019;28;20070;-76
2021/03/13 05:54:24;;;;;;;25.77;11.13;;;;;;;5.64;100.00;98856.44;4972093;28;20093;-75
2021/03/13 05:56:50;;;;;;;28.90;11.60;;;;;;;5.86;100.00;98847.53;4954701;28;20122;-76
2021/03/13 05:59:16;;;;;;;23.90;10.95;;;;;;;5.82;100.00;98845.94;4966826;28;20038;-75
2021/03/13 06:01:44;;;;;;;26.40;10.90;;;;;;;5.90;100.00;98829.66;4983742;28;20038;-76
2021/03/13 06:04:09;;;;;;;24.95;10.43;;;;;;;5.93;100.00;98820.13;4970294;28;20102;-77
2021/03/13 06:06:39;;;;;;;20.90;9.88;;;;;;;5.87;100.00;98825.03;4970591;28;20137;-76
2021/03/13 06:09:05;;;;;;;21.98;10.60;;;;;;;5.78;100.00;98823.78;4972032;28;20454;-76
2021/03/13 06:11:31;;;;;;;21.98;9.93;;;;;;;5.75;100.00;98819.91;4970474;28;20153;-77
2021/03/13 06:13:57;;;;;;;29.48;10.70;;;;;;;5.98;100.00;98807.19;4971800;28;20043;-76
2021/03/13 06:16:23;;;;;;;20.88;9.60;;;;;;;5.89;100.00;98808.63;4969792;28;20046;-74
2021/03/13 06:18:48;;;;;;;23.92;9.23;;;;;;;5.95;100.00;98794.56;4970385;28;20031;-75
2021/03/13 06:21:41;;;;;;;25.60;11.20;;;;;;;5.85;100.00;98789.13;4968285;28;20479;-75
2021/03/13 06:24:21;;;;;;;20.52;10.18;;;;;;;6.01;100.00;98784.31;4982168;28;20047;-75
2021/03/13 06:27:04;;;;;;;23.65;10.15;;;;;;;6.02;100.00;98775.94;4971659;28;20043;-76
2021/03/13 06:29:31;;;;;;;17.58;8.82;;;;;;;6.07;100.00;98775.59;4969506;28;20041;-75
2021/03/13 06:32:07;;;;;;;18.30;8.77;;;;;;;5.91;100.00;98769.75;4970065;28;20031;-76
2021/03/13 06:34:34;;;;;;;18.67;8.88;;;;;;;5.96;100.00;98760.63;4961530;28;20027;-75
2021/03/13 06:37:22;;;;;;;20.35;8.40;;;;;;;6.01;100.00;98758.38;4968053;28;20039;-75
2021/03/13 06:39:48;;;;;;;21.38;8.80;;;;;;;6.10;100.00;98745.44;4968503;28;20078;-76
2021/03/13 06:42:23;;;;;;;20.05;8.50;;;;;;;6.17;100.00;98750.88;4964631;28;20039;-75
2021/03/13 06:45:00;;;;;;;20.50;8.07;;;;;;;5.95;100.00;98737.72;4962875;28;20023;-76
2021/03/13 06:47:36;;;;;;;15.65;7.65;;;;;;;5.92;100.00;98730.44;4964863;28;20039;-75
2021/03/13 06:50:09;;;;;;;15.73;7.72;;;;;;;5.98;100.00;98728.97;4971181;28;20103;-76
2021/03/13 06:52:35;;;;;;;16.33;7.53;;;;;;;5.97;100.00;98740.78;4970519;28;20042;-76
2021/03/13 06:55:00;;;;;;;17.63;7.90;;;;;;;5.87;100.00;98722.78;4955253;28;20030;-77
2021/03/13 06:57:26;;;;;;;15.98;7.70;;;;;;;6.05;100.00;98712.97;4960759;28;20081;-75
2021/03/13 06:59:51;;;;;;;13.30;7.40;;;;;;;6.10;100.00;98708.06;4972622;28;20467;-76
2021/03/13 07:02:21;;;;;;;17.02;7.55;;;;;;;5.94;100.00;98709.47;4964270;28;20043;-75
2021/03/13 07:04:47;;;;;;;18.63;7.53;;;;;;;6.00;100.00;98689.31;4968789;28;20065;-76
2021/03/13 07:07:25;;;;;;;18.15;6.88;;;;;;;5.96;100.00;98689.25;4972219;28;20037;-76
2021/03/13 07:09:53;;;;;;;14.52;6.55;;;;;;;6.12;100.00;98678.28;4976659;28;20043;-76
2021/03/13 07:12:35;;;;;;;18.83;7.10;;;;;;;6.16;100.00;98671.81;4960888;28;20069;-75
2021/03/13 07:15:20;;;;;;;15.35;6.43;;;;;;;6.02;100.00;98666.41;4971845;28;20113;-75
2021/03/13 07:17:50;;;;;;;15.57;7.05;;;;;;;6.00;100.00;98675.94;4966927;28;20068;-77
2021/03/13 07:20:18;;;;;;;14.80;7.15;;;;;;;5.76;100.00;98655.16;4957057;28;20468;-76
2021/03/13 07:22:48;;;;;;;14.57;6.82;;;;;;;6.00;100.00;98643.88;4966569;28;20081;-76
2021/03/13 07:25:18;;;;;;;11.60;6.28;;;;;;;6.02;100.00;98638.94;4959728;28;20037;-75
2021/03/13 07:27:44;;;;;;;11.38;6.25;;;;;;;5.73;100.00;98634.53;4969824;28;20054;-76
2021/03/13 07:30:15;;;;;;;15.73;6.65;;;;;;;5.98;100.00;98627.47;4966210;28;20030;-76
2021/03/13 07:32:46;;;;;;;15.37;6.50;;;;;;;5.77;100.00;98613.97;4975162;28;20035;-76
2021/03/13 07:35:15;;;;;;;12.77;6.28;;;;;;;5.85;100.00;98612.88;4974323;28;20129;-77
2021/03/13 07:37:41;;;;;;;12.70;5.88;;;;;;;5.87;100.00;98613.28;4967352;28;20031;-76
2021/03/13 07:40:15;;;;;;;9.02;4.53;;;;;;;5.72;100.00;98603.63;4962437;28;20119;-76
2021/03/13 07:42:44;;;;;;;11.95;5.28;;;;;;;5.88;100.00;98588.13;4984487;28;20042;-76
2021/03/13 07:45:12;;;;;;;10.95;5.35;;;;;;;5.87;100.00;98595.34;4967232;28;20037;-76
2021/03/13 07:47:39;;;;;;;7.57;4.95;;;;;;;5.87;100.00;98578.56;4968846;28;20027;-75
2021/03/13 07:50:10;;;;;;;8.43;4.80;;;;;;;5.85;100.00;98578.94;4973338;28;20075;-76
2021/03/13 07:52:40;;;;;;;10.63;5.35;;;;;;;5.70;100.00;98565.84;4963177;28;20039;-76
2021/03/13 07:55:12;;;;;;;8.80;4.55;;;;;;;5.59;100.00;98560.47;4974662;28;20503;-76
2021/03/13 07:57:41;;;;;;;11.25;4.63;;;;;;;5.80;100.00;98547.22;4973015;28;20073;-76
2021/03/13 08:00:07;;;;;;;8.48;4.95;;;;;;;5.79;100.00;98550.28;4973903;28;20538;-75
2021/03/13 08:02:40;;;;;;;10.05;4.90;;;;;;;5.82;100.00;98541.50;4964246;28;20057;-77
2021/03/13 08:05:07;;;;;;;9.40;4.10;;;;;;;5.80;100.00;98512.53;4973469;28;20034;-76
2021/03/13 08:08:03;;;;;;;8.98;3.88;;;;;;;5.90;100.00;98508.38;4974808;28;20588;-76
2021/03/13 08:10:51;;;;;;;6.97;3.72;;;;;;;5.98;100.00;98504.59;4979331;28;20039;-75
2021/03/13 08:13:28;;;;;;;5.65;3.35;;;;;;;5.70;100.00;98481.19;4974048;28;20544;-75
2021/03/13 08:16:07;;;;;;;6.00;3.47;;;;;;;5.64;100.00;98477.34;4974423;28;20055;-76
2021/03/13 08:18:44;;;;;;;4.47;3.20;;;;;;;5.79;100.00;98462.91;4969686;28;20107;-75
2021/03/13 08:21:35;;;;;;;4.25;3.33;;;;;;;5.84;100.00;98469.84;4972884;28;20034;-75
2021/03/13 08:24:01;;;;;;;8.50;3.15;;;;;;;5.94;100.00;98467.19;4970748;28;20055;-75
2021/03/13 08:26:36;;;;;;;5.60;3.22;;;;;;;5.87;100.00;98466.41;4970060;28;20035;-76
2021/03/13 08:29:03;;;;;;;4.43;2.90;;;;;;;5.89;100.00;98474.78;4969711;28;20150;-76
2021/03/13 08:31:32;;;;;;;5.47;2.95;;;;;;;5.85;100.00;98464.09;4966992;28;20089;-76
2021/03/13 08:34:01;;;;;;;4.30;3.13;;;;;;;6.07;100.00;98456.91;4967219;28;20043;-76
2021/03/13 08:36:29;;;;;;;4.28;3.28;;;;;;;5.96;100.00;98446.19;4964751;28;20039;-76
2021/03/13 08:38:57;;;;;;;2.47;2.28;;;;;;;5.77;100.00;98438.50;4969365;28;20039;-75
2021/03/13 08:41:40;;;;;;;5.60;3.00;;;;;;;5.91;100.00;98413.75;4970294;28;20507;-76
2021/03/13 08:44:07;;;;;;;3.38;2.50;;;;;;;5.82;100.00;98414.09;4965098;28;20042;-76
2021/03/13 08:46:42;;;;;;;3.03;2.13;;;;;;;5.81;100.00;98399.22;4969312;28;20096;-75
2021/03/13 08:49:08;;;;;;;3.85;2.55;;;;;;;5.84;100.00;98395.06;4972615;28;20495;-75
2021/03/13 08:51:34;;;;;;;3.90;2.80;;;;;;;5.91;100.00;98381.72;4965945;28;20042;-75
2021/03/13 08:54:00;;;;;;;4.70;2.70;;;;;;;5.97;100.00;98374.84;4998719;28;20087;-75
2021/03/13 08:56:36;;;;;;;3.22;2.30;;;;;;;6.18;100.00;98369.53;4972283;28;20042;-75
2021/03/13 08:59:28;;;;;;;4.60;2.50;;;;;;;6.19;100.00;98374.47;4972098;28;20034;-75
2021/03/13 09:02:08;;;;;;;4.75;3.00;;;;;;;5.98;100.00;98336.34;4968160;28;20100;-74
2021/03/13 09:04:35;;;;;;;5.95;3.20;;;;;;;6.17;100.00;98341.28;4975568;28;20660;-75
2021/03/13 09:07:02;;;;;;;4.70;2.63;;;;;;;6.07;100.00;98334.03;4966262;28;20034;-76
2021/03/13 09:09:30;;;;;;;6.10;4.57;;;;;;;6.28;100.00;98337.47;4984040;23;20050;-74
2021/03/13 09:11:59;;;;;;;10.43;5.70;;;;;;;6.41;100.00;98335.16;5002395;28;20117;-74
2021/03/13 09:14:25;;;;;;;4.40;3.08;;;;;;;6.28;100.00;98310.75;4988003;28;20022;-74
2021/03/13 09:16:51;;;;;;;3.15;2.42;;;;;;;6.23;100.00;98305.03;4989498;28;20117;-73
2021/03/13 09:19:17;;;;;;;3.30;2.47;;;;;;;6.45;100.00;98313.75;4986032;28;20113;-74
2021/03/13 09:21:48;;;;;;;2.97;2.60;;;;;;;6.43;100.00;98308.06;4982207;28;20121;-73
2021/03/13 09:24:15;;;;;;;;;;;;;;;6.32;100.00;98305.41;4972927;28;20065;-74
2021/03/13 09:26:41;;;;;;;3.38;2.13;;;;;;;6.45;100.00;98306.50;4981567;28;19917;-74
2021/03/13 09:29:06;;;;;;;6.93;2.75;;;;;;;6.53;100.00;98300.00;4984323;28;20123;-75
2021/03/13 09:31:33;;;;;;;4.22;2.90;;;;;;;6.50;100.00;98300.03;4984400;28;20041;-75
2021/03/13 09:34:18;;;;;;;4.43;3.03;;;;;;;6.67;100.00;98286.59;4980926;28;20091;-75
2021/03/13 09:36:47;;;;;;;5.32;4.03;;;;;;;6.75;100.00;98292.69;4970320;28;20109;-74
2021/03/13 09:39:24;;;;;;;4.03;3.10;;;;;;;6.69;100.00;98289.66;4980318;28;20062;-74
2021/03/13 09:42:12;;;;;;;4.43;3.25;;;;;;;6.69;100.00;98297.69;4973876;28;20030;-74
2021/03/13 09:44:55;;;;;;;3.20;2.63;;;;;;;6.81;100.00;98291.91;4980112;28;20045;-74
2021/03/13 09:47:29;;;;;;;3.88;2.70;;;;;;;6.94;100.00;98284.97;4986213;28;20495;-74
2021/03/13 09:49:59;;;;;;;3.90;2.67;;;;;;;7.16;100.00;98296.34;4980727;28;20082;-74
2021/03/13 09:52:42;;;;;;;3.10;2.75;;;;;;;6.85;100.00;98289.97;4984056;28;20474;-74
2021/03/13 09:55:12;;;;;;;2.67;2.38;;;;;;;7.22;100.00;98295.53;4976872;28;20061;-74
2021/03/13 09:57:39;;;;;;;5.10;3.00;;;;;;;7.41;100.00;98312.28;4971217;28;20035;-75
2021/03/13 10:00:16;;;;;;;4.05;3.40;;;;;;;7.54;100.00;98335.53;4974925;28;20038;-74
2021/03/13 10:02:42;;;;;;;3.33;2.53;;;;;;;7.54;100.00;98369.59;4973373;28;20037;-75
2021/03/13 10:05:12;;;;;;;3.75;2.53;;;;;;;7.62;100.00;98357.69;4973288;28;20169;-75
2021/03/13 10:07:41;;;;;;;3.88;1.83;;;;;;;7.64;100.00;98336.63;4970879;28;20062;-74
2021/03/13 10:10:09;;;;;;;3.17;1.70;;;;;;;7.72;100.00;98338.13;4967697;28;20042;-75
2021/03/13 10:12:41;;;;;;;1.92;1.80;;;;;;;7.62;100.00;98322.88;4981170;28;20045;-74
2021/03/13 10:15:27;;;;;;;2.33;1.58;;;;;;;7.63;100.00;98305.63;4973870;28;20346;-75
2021/03/13 10:18:01;;;;;;;1.75;1.33;;;;;;;7.60;100.00;98315.22;4971600;28;20039;-74
2021/03/13 10:20:28;;;;;;;2.75;1.13;;;;;;;7.62;100.00;98323.63;4979054;28;20093;-74
2021/03/13 10:22:55;;;;;;;2.95;1.05;;;;;;;7.70;100.00;98324.34;4968833;28;20058;-75
2021/03/13 10:25:21;;;;;;;1.73;0.98;;;;;;;7.67;100.00;98317.09;4968812;28;20030;-74
2021/03/13 10:27:46;;;;;;;1.70;0.88;;;;;;;7.82;100.00;98303.19;4972839;28;20042;-74
2021/03/13 10:30:12;;;;;;;6.80;1.15;;;;;;;7.84;100.00;98310.88;4979276;28;20038;-74
2021/03/13 10:32:40;;;;;;;2.80;0.85;;;;;;;7.74;100.00;98309.75;4972466;28;20066;-74
2021/03/13 10:35:08;;;;;;;3.55;1.15;;;;;;;7.81;100.00;98309.72;4981951;28;20552;-74
2021/03/13 10:37:45;;;;;;;6.50;0.93;;;;;;;7.98;100.00;98305.38;4984606;28;20062;-75
2021/03/13 10:40:29;;;;;;;4.68;0.90;;;;;;;7.98;100.00;98306.16;4970086;28;20175;-75
2021/03/13 10:43:25;;;;;;;5.25;0.93;;;;;;;8.14;100.00;98311.00;4980416;28;20054;-74
2021/03/13 10:45:58;;;;;;;2.45;0.90;;;;;;;8.20;100.00;98309.41;4951737;28;20647;-74
2021/03/13 10:48:29;;;;;;;2.90;1.20;;;;;;;8.48;100.00;98298.44;4961130;28;20467;-74
2021/03/13 10:50:55;;;;;;;4.47;1.45;;;;;;;8.80;100.00;98293.53;4958246;28;20035;-74
2021/03/13 10:53:40;;;;;;;3.17;1.10;;;;;;;9.10;100.00;98292.75;4953424;28;20034;-74
2021/03/13 10:56:11;;;;;;;4.05;1.42;;;;;;;9.26;100.00;98292.19;4973594;28;20039;-74
2021/03/13 10:58:38;;;;;;;4.60;1.60;;;;;;;9.56;100.00;98278.72;4972781;28;20042;-74
2021/03/13 11:01:06;;;;;;;6.65;1.30;;;;;;;9.88;100.00;98300.50;4983738;28;20023;-74
2021/03/13 11:03:32;;;;;;;5.45;1.35;;;;;;;10.10;98.33;98287.50;4985448;28;20109;-74
2021/03/13 11:05:58;;;;;;;5.38;1.55;;;;;;;10.30;95.94;98283.69;4975087;28;20658;-74
2021/03/13 11:08:26;;;;;;;2.95;1.52;;;;;;;10.44;95.13;98274.59;4958384;28;20046;-74
2021/03/13 11:10:53;;;;;;;4.47;1.38;;;;;;;10.41;92.78;98278.13;4969898;28;20490;-74
2021/03/13 11:13:20;;;;;;;5.70;1.50;;;;;;;10.29;93.81;98281.41;4971355;28;20034;-74
2021/03/13 11:15:46;;;;;;;4.50;1.73;;;;;;;10.66;94.01;98273.06;4968802;28;20504;-74
2021/03/13 11:18:12;;;;;;;7.90;1.63;;;;;;;10.69;89.51;98278.38;4974526;28;20026;-74
2021/03/13 11:20:38;;;;;;;5.13;1.20;;;;;;;10.42;89.33;98258.13;4981594;28;20050;-74
2021/03/13 11:23:05;;;;;;;3.67;1.25;;;;;;;10.58;90.32;98247.44;4969673;28;20414;-74
2021/03/13 11:25:31;;;;;;;2.90;1.30;;;;;;;10.61;89.81;98223.16;4969164;28;20088;-74
2021/03/13 11:27:57;;;;;;;4.15;1.70;;;;;;;11.04;89.75;98247.28;4986157;28;20026;-74
2021/03/13 11:30:23;;;;;;;7.95;1.50;;;;;;;10.94;86.89;98242.13;4971990;28;20403;-74
2021/03/13 11:32:49;;;;;;;2.50;1.13;;;;;;;10.79;87.58;98249.72;4992222;28;20072;-74
2021/03/13 11:35:15;;;;;;;4.38;1.70;;;;;;;10.70;85.86;98247.56;4979195;28;20039;-74
2021/03/13 11:37:41;;;;;;;3.85;1.30;;;;;;;10.99;86.45;98242.41;4974137;28;20098;-74
2021/03/13 11:40:10;;;;;;;5.55;1.05;;;;;;;11.01;84.87;98242.75;4969595;28;20046;-74
2021/03/13 11:42:36;;;;;;;6.40;1.33;;;;;;;10.84;84.63;98233.84;4979411;28;20506;-74